Terminal Aerodrome Forecast
Issued by NWS

Home | Current Version | Previous Version | Text Only | Print | Product List | Glossary On
Versions: 1 2 3 4 5 6 7 8 9 10 11 12 13 14 15 16 17 18 19 20 21 22 23 24 25 26
000
FTUS41 KALY 040747 AAA
TAFPSF
TAF AMD
KPSF 040747Z 0408/0506 07003KT 5SM BR SKC
      TEMPO 0408/0412 2SM BR SKC
     FM041200 07004KT P6SM BKN030
     FM041600 08006KT P6SM BKN035
     FM042100 09006KT P6SM SCT035
     FM050200 00000KT P6SM FEW040=

USA.gov is the U.S. government's official web portal to all federal, state and local government web resources and services.